Time;durP1;ratioP1;P1;durP2;ratioP2;P2;SDS_P1;SDS_P2;PMS_P1;PMS_P2;Temp;Humidity;BMP_temperature;BMP_pressure;BME280_temperature;BME280_humidity;BME280_pressure;Samples;Min_cycle;Max_cycle;Signal;HPM_P1;HPM_P2
2023/08/07 00:00:26;;;;;;;1.10;0.30;;;;;;;16.43;82.36;98753.11;102693;277;106143;-57
2023/08/07 00:03:24;;;;;;;0.40;0.20;;;;;;;16.29;82.51;98762.15;102664;277;114155;-56
2023/08/07 00:06:03;;;;;;;1.60;0.40;;;;;;;16.27;82.42;98775.98;102704;277;96630;-57
2023/08/07 00:08:42;;;;;;;1.00;0.40;;;;;;;16.23;82.79;98779.46;102712;277;96677;-57
2023/08/07 00:11:21;;;;;;;0.50;0.40;;;;;;;16.25;82.78;98785.35;102710;277;121242;-55
2023/08/07 00:14:00;;;;;;;0.40;0.20;;;;;;;16.24;82.96;98792.75;102692;277;105725;-55
2023/08/07 00:16:36;;;;;;;1.20;0.40;;;;;;;16.25;83.28;98797.61;102681;277;113551;-54
2023/08/07 00:19:15;;;;;;;0.20;0.20;;;;;;;16.21;83.32;98795.41;102698;277;96897;-52
2023/08/07 00:21:56;;;;;;;1.10;0.20;;;;;;;16.20;83.35;98791.05;102721;277;97000;-55
2023/08/07 00:24:40;;;;;;;1.00;0.20;;;;;;;16.23;83.38;98796.85;102675;277;119155;-54
2023/08/07 00:27:17;;;;;;;0.80;0.30;;;;;;;16.19;83.52;98802.05;102726;277;105777;-57
2023/08/07 00:29:59;;;;;;;0.70;0.30;;;;;;;16.17;83.52;98791.58;102663;277;114340;-57
2023/08/07 00:32:35;;;;;;;1.20;0.20;;;;;;;16.16;83.84;98790.55;102704;277;96906;-57
2023/08/07 00:35:11;;;;;;;0.50;0.30;;;;;;;16.20;83.81;98792.79;102742;277;97011;-57
2023/08/07 00:37:47;;;;;;;0.30;0.10;;;;;;;16.13;83.90;98790.67;102719;277;119870;-55
2023/08/07 00:40:23;;;;;;;0.50;0.20;;;;;;;16.10;84.27;98790.55;102722;277;105502;-55
2023/08/07 00:43:04;;;;;;;0.10;0.10;;;;;;;16.11;84.20;98789.69;102705;277;114966;-54
2023/08/07 00:45:46;;;;;;;0.50;0.30;;;;;;;16.08;84.40;98788.14;102691;277;97327;-54
2023/08/07 00:48:29;;;;;;;0.40;0.30;;;;;;;16.12;84.34;98787.34;102729;277;98073;-55
2023/08/07 00:51:07;;;;;;;1.00;0.40;;;;;;;16.13;84.45;98784.69;102747;277;121162;-55
2023/08/07 00:53:43;;;;;;;0.80;0.40;;;;;;;16.12;84.25;98773.46;102728;277;106240;-56
2023/08/07 00:56:21;;;;;;;1.20;0.60;;;;;;;16.08;84.53;98770.00;102732;277;114720;-56
2023/08/07 00:59:00;;;;;;;0.40;0.40;;;;;;;16.06;84.54;98764.11;102691;277;96549;-57
2023/08/07 01:01:40;;;;;;;0.70;0.50;;;;;;;16.08;84.57;98764.45;102707;277;97772;-55
2023/08/07 01:04:22;;;;;;;2.90;1.00;;;;;;;16.07;84.35;98764.44;102665;277;120121;-54
2023/08/07 01:07:03;;;;;;;0.80;0.60;;;;;;;16.04;84.51;98761.96;102718;277;105889;-55
2023/08/07 01:09:44;;;;;;;1.50;0.80;;;;;;;15.96;84.58;98764.94;102675;277;115050;-54
2023/08/07 01:12:29;;;;;;;1.30;0.60;;;;;;;15.82;84.78;98762.83;102726;277;97211;-54
2023/08/07 01:15:15;;;;;;;1.70;0.80;;;;;;;15.84;84.75;98764.47;102717;277;97906;-55
2023/08/07 01:17:58;;;;;;;0.80;0.70;;;;;;;15.87;85.10;98757.20;102745;277;118350;-55
2023/08/07 01:20:38;;;;;;;1.00;0.50;;;;;;;15.89;85.16;98751.23;102719;277;103905;-56
2023/08/07 01:23:16;;;;;;;1.10;0.80;;;;;;;15.92;85.10;98752.86;102734;265;112515;-54
2023/08/07 01:25:51;;;;;;;1.60;0.70;;;;;;;15.86;85.36;98754.84;102689;277;97288;-56
2023/08/07 01:28:34;;;;;;;1.50;0.70;;;;;;;15.83;85.29;98755.16;102671;277;96593;-55
2023/08/07 01:31:15;;;;;;;1.70;0.70;;;;;;;15.81;85.35;98751.27;102698;277;121715;-56
2023/08/07 01:34:00;;;;;;;2.00;0.70;;;;;;;15.75;85.62;98764.36;102715;277;105563;-56
2023/08/07 01:36:47;;;;;;;1.50;0.70;;;;;;;15.81;85.75;98775.83;102674;277;114623;-53
2023/08/07 01:39:27;;;;;;;1.50;0.80;;;;;;;15.75;85.76;98773.52;102702;277;97408;-54
2023/08/07 01:42:07;;;;;;;2.50;0.90;;;;;;;15.78;85.78;98767.42;102741;277;97486;-56
2023/08/07 01:44:47;;;;;;;3.10;1.00;;;;;;;15.80;85.75;98770.98;102694;277;120547;-55
2023/08/07 01:47:27;;;;;;;3.10;0.80;;;;;;;15.80;86.09;98778.77;102732;277;105808;-55
2023/08/07 01:50:08;;;;;;;2.20;1.00;;;;;;;15.74;86.01;98787.60;102653;277;113671;-54
2023/08/07 01:52:45;;;;;;;1.80;1.00;;;;;;;15.73;86.06;98788.47;102751;277;95739;-55
2023/08/07 01:55:25;;;;;;;2.30;1.10;;;;;;;15.67;86.16;98787.07;102679;277;97178;-55
2023/08/07 01:58:04;;;;;;;1.30;0.90;;;;;;;15.68;86.22;98786.97;102714;277;121108;-55
2023/08/07 02:00:42;;;;;;;1.20;1.10;;;;;;;15.72;86.31;98788.90;102723;277;105023;-55
2023/08/07 02:03:20;;;;;;;2.90;1.00;;;;;;;15.72;86.22;98780.67;102667;277;112894;-54
2023/08/07 02:06:01;;;;;;;2.10;1.20;;;;;;;15.72;86.36;98769.69;102721;277;97033;-55
2023/08/07 02:08:41;;;;;;;2.60;1.00;;;;;;;15.70;86.40;98755.67;102677;277;98100;-56
2023/08/07 02:11:15;;;;;;;2.80;1.00;;;;;;;15.72;86.18;98755.58;102716;277;121067;-54
2023/08/07 02:13:52;;;;;;;1.80;1.00;;;;;;;15.70;86.49;98759.10;102723;277;105512;-53
2023/08/07 02:16:29;;;;;;;1.60;1.00;;;;;;;15.68;86.26;98759.41;102740;277;114240;-54
2023/08/07 02:19:07;;;;;;;2.10;1.00;;;;;;;15.69;86.32;98761.38;102712;277;97149;-55
2023/08/07 02:21:44;;;;;;;2.00;0.80;;;;;;;15.65;86.31;98765.77;102767;277;96848;-56
2023/08/07 02:24:20;;;;;;;2.70;1.10;;;;;;;15.63;86.58;98769.34;102701;277;121247;-56
2023/08/07 02:26:59;;;;;;;2.40;1.00;;;;;;;15.61;86.71;98779.40;102716;277;105839;-56
2023/08/07 02:29:36;;;;;;;1.60;1.00;;;;;;;15.57;86.64;98786.11;102684;277;114072;-55
2023/08/07 02:32:12;;;;;;;1.70;1.00;;;;;;;15.57;86.69;98789.39;102696;277;97864;-57
2023/08/07 02:34:50;;;;;;;1.40;0.80;;;;;;;15.59;86.76;98798.61;102681;277;98293;-57
2023/08/07 02:37:28;;;;;;;1.00;0.80;;;;;;;15.61;86.64;98798.89;102690;277;119327;-58
2023/08/07 02:40:04;;;;;;;1.20;0.80;;;;;;;15.56;87.01;98798.52;102685;277;105292;-57
2023/08/07 02:42:41;;;;;;;2.20;0.80;;;;;;;15.55;87.09;98799.12;102713;277;114555;-54
2023/08/07 02:45:20;;;;;;;2.50;0.70;;;;;;;15.55;87.02;98796.51;102693;277;96977;-54
2023/08/07 02:47:57;;;;;;;1.20;0.70;;;;;;;15.54;86.94;98793.71;102729;277;97279;-55
2023/08/07 02:50:34;;;;;;;1.00;0.70;;;;;;;15.52;87.31;98794.19;102684;277;121434;-55
2023/08/07 02:53:10;;;;;;;2.30;0.80;;;;;;;15.43;87.19;98793.45;102765;277;104870;-57
2023/08/07 02:55:51;;;;;;;1.00;0.70;;;;;;;15.44;87.12;98800.91;102687;277;115043;-56
2023/08/07 02:58:27;;;;;;;1.60;0.70;;;;;;;15.49;86.92;98810.02;102671;277;96509;-55
2023/08/07 03:01:13;;;;;;;1.00;0.70;;;;;;;15.48;87.17;98819.80;102679;266;97163;-53
2023/08/07 03:03:52;;;;;;;2.30;0.80;;;;;;;15.47;87.11;98816.30;102647;277;119769;-53
2023/08/07 03:06:30;;;;;;;1.10;0.70;;;;;;;15.44;86.96;98808.41;102697;277;104904;-56
2023/08/07 03:09:09;;;;;;;1.00;0.70;;;;;;;15.41;87.07;98798.31;102607;277;114702;-57
2023/08/07 03:11:51;;;;;;;1.20;0.70;;;;;;;15.39;87.08;98796.50;102733;277;96343;-54
2023/08/07 03:14:32;;;;;;;1.80;0.90;;;;;;;15.38;87.12;98802.92;102228;277;436986;-53
2023/08/07 03:17:11;;;;;;;1.80;0.90;;;;;;;15.36;87.19;98812.38;102722;277;121331;-55
2023/08/07 03:19:51;;;;;;;2.50;0.80;;;;;;;15.34;87.30;98810.95;102696;277;104139;-55
2023/08/07 03:22:28;;;;;;;4.00;0.90;;;;;;;15.31;87.33;98806.84;102746;277;114656;-55
2023/08/07 03:25:15;;;;;;;1.80;0.80;;;;;;;15.31;87.21;98811.02;102686;277;96604;-55
2023/08/07 03:27:52;;;;;;;1.50;1.10;;;;;;;15.32;87.33;98815.97;102735;277;96850;-54
2023/08/07 03:30:34;;;;;;;2.60;0.70;;;;;;;15.34;87.34;98817.58;102739;277;120771;-54
2023/08/07 03:33:18;;;;;;;1.10;0.80;;;;;;;15.35;87.30;98830.60;102722;277;105390;-57
2023/08/07 03:36:00;;;;;;;3.40;1.10;;;;;;;15.35;87.22;98832.23;102696;277;114107;-55
2023/08/07 03:38:36;;;;;;;1.30;0.80;;;;;;;15.38;87.36;98833.02;102699;277;96854;-56
2023/08/07 03:41:14;;;;;;;2.40;0.90;;;;;;;15.37;87.33;98838.98;102748;277;98378;-54
2023/08/07 03:43:58;;;;;;;11.20;1.80;;;;;;;15.37;87.37;98836.83;102677;277;121871;-54
2023/08/07 03:46:37;;;;;;;1.40;1.00;;;;;;;15.33;87.30;98846.80;102629;277;104711;-54
2023/08/07 03:49:18;;;;;;;1.90;1.10;;;;;;;15.33;87.24;98855.77;102605;278;114434;-53
2023/08/07 03:51:59;;;;;;;1.50;0.90;;;;;;;15.36;87.28;98855.58;102630;278;95340;-57
2023/08/07 03:54:37;;;;;;;2.50;1.00;;;;;;;15.31;87.39;98854.84;102587;278;97930;-57
2023/08/07 03:57:21;;;;;;;2.50;1.10;;;;;;;15.29;87.37;98862.15;102628;278;120825;-55
2023/08/07 03:59:56;;;;;;;1.30;1.00;;;;;;;15.29;87.31;98865.91;102605;278;105618;-56
2023/08/07 04:02:34;;;;;;;2.40;1.20;;;;;;;15.33;87.37;98863.16;102611;278;115359;-54
2023/08/07 04:05:10;;;;;;;1.50;1.10;;;;;;;15.33;87.46;98863.02;102562;278;96235;-53
2023/08/07 04:07:48;;;;;;;2.70;1.20;;;;;;;15.34;87.55;98854.48;102651;278;97315;-57
2023/08/07 04:10:30;;;;;;;1.50;1.10;;;;;;;15.37;87.37;98842.31;102597;278;121575;-57
2023/08/07 04:13:10;;;;;;;3.00;1.40;;;;;;;15.36;87.41;98836.10;102613;278;106024;-54
2023/08/07 04:15:52;;;;;;;1.90;0.90;;;;;;;15.31;87.41;98827.39;102606;278;114927;-53
2023/08/07 04:18:27;;;;;;;;;;;;;;;15.34;87.34;98834.93;102598;278;95973;-55
2023/08/07 04:21:06;;;;;;;1.80;1.30;;;;;;;15.32;87.37;98837.09;102672;278;96812;-57
2023/08/07 04:23:44;;;;;;;2.90;1.10;;;;;;;15.41;87.73;98836.03;102622;278;121127;-58
2023/08/07 04:26:26;;;;;;;2.10;1.00;;;;;;;15.43;87.46;98835.08;102612;278;105639;-57
2023/08/07 04:29:07;;;;;;;2.00;1.20;;;;;;;15.47;87.52;98835.58;102589;277;113908;-57
2023/08/07 04:31:44;;;;;;;2.40;1.30;;;;;;;15.49;87.67;98845.18;102534;266;97501;-54
2023/08/07 04:34:24;;;;;;;1.90;1.10;;;;;;;15.48;87.76;98854.26;102597;278;97190;-54
2023/08/07 04:37:00;;;;;;;1.60;1.00;;;;;;;15.51;87.57;98853.80;102556;278;121269;-55
2023/08/07 04:39:37;;;;;;;2.30;1.10;;;;;;;15.50;87.30;98852.70;102588;278;103252;-55
2023/08/07 04:42:24;;;;;;;2.90;0.90;;;;;;;15.53;87.25;98856.37;102549;278;114895;-57
2023/08/07 04:45:02;;;;;;;2.40;1.10;;;;;;;15.58;87.31;98861.96;102542;278;97307;-57
2023/08/07 04:47:41;;;;;;;1.80;1.10;;;;;;;15.64;87.44;98870.19;102608;278;98355;-57
2023/08/07 04:50:25;;;;;;;2.00;1.40;;;;;;;15.72;87.26;98880.16;102573;278;121222;-58
2023/08/07 04:53:03;;;;;;;2.30;1.00;;;;;;;15.77;87.18;98880.85;102592;278;104169;-57
2023/08/07 04:55:37;;;;;;;2.80;1.30;;;;;;;15.81;87.36;98875.27;102606;278;114576;-57
2023/08/07 04:58:20;;;;;;;2.70;1.10;;;;;;;15.88;87.07;98870.50;102572;278;94273;-57
2023/08/07 05:00:59;;;;;;;;;;;;;;;15.86;87.00;98869.23;102604;278;98296;-55
2023/08/07 05:03:38;;;;;;;1.80;0.90;;;;;;;15.79;86.85;98870.65;102566;278;120843;-56
2023/08/07 05:06:15;;;;;;;2.20;1.10;;;;;;;15.80;86.85;98875.38;102580;278;105244;-54
2023/08/07 05:08:52;;;;;;;1.60;1.10;;;;;;;15.82;86.85;98881.61;102557;278;114223;-55
2023/08/07 05:11:31;;;;;;;1.20;1.00;;;;;;;15.80;86.62;98885.85;102593;278;96908;-56
2023/08/07 05:14:10;;;;;;;1.20;0.90;;;;;;;15.84;86.75;98889.30;102625;278;97695;-55
2023/08/07 05:16:49;;;;;;;2.10;1.00;;;;;;;15.82;86.59;98891.31;102614;278;119974;-55
2023/08/07 05:19:27;;;;;;;1.20;1.00;;;;;;;15.79;86.58;98890.95;102595;278;105472;-56
2023/08/07 05:22:02;;;;;;;1.90;1.00;;;;;;;15.83;86.54;98893.48;102606;278;115215;-56
2023/08/07 05:24:44;;;;;;;2.30;1.20;;;;;;;15.86;86.67;98895.48;102598;278;96460;-56
2023/08/07 05:27:21;;;;;;;2.80;1.20;;;;;;;15.76;86.68;98892.73;102619;278;98505;-57
2023/08/07 05:30:02;;;;;;;4.20;1.90;;;;;;;15.74;86.82;98892.16;102584;277;120898;-57
2023/08/07 05:32:38;;;;;;;1.90;1.00;;;;;;;15.71;86.84;98895.71;102619;278;105330;-58
2023/08/07 05:35:15;;;;;;;2.30;1.30;;;;;;;15.70;87.30;98897.63;102574;278;114384;-57
2023/08/07 05:37:53;;;;;;;2.50;1.10;;;;;;;15.67;87.15;98894.01;102589;278;97143;-55
2023/08/07 05:40:31;;;;;;;1.50;1.30;;;;;;;15.67;87.28;98891.66;102617;278;97608;-54
2023/08/07 05:43:10;;;;;;;1.60;1.20;;;;;;;15.73;87.39;98898.08;102600;278;119040;-56
2023/08/07 05:45:53;;;;;;;2.90;1.10;;;;;;;15.82;87.60;98895.38;102568;277;104459;-56
2023/08/07 05:48:36;;;;;;;1.80;1.10;;;;;;;15.87;87.47;98901.00;102537;278;113696;-62
2023/08/07 05:51:15;;;;;;;1.30;1.10;;;;;;;15.90;87.48;98898.56;102631;277;95789;-58
2023/08/07 05:53:56;;;;;;;1.40;1.00;;;;;;;15.94;87.58;98897.84;102613;278;97353;-57
2023/08/07 05:56:38;;;;;;;1.90;1.10;;;;;;;16.02;87.54;98900.93;102584;278;120484;-55
2023/08/07 05:59:15;;;;;;;1.60;1.10;;;;;;;16.04;87.47;98900.62;102558;278;105461;-55
2023/08/07 06:01:54;;;;;;;1.40;1.00;;;;;;;15.99;87.34;98899.61;102577;278;115279;-55
2023/08/07 06:04:35;;;;;;;1.60;1.30;;;;;;;15.99;87.38;98902.67;102554;278;94998;-56
2023/08/07 06:07:17;;;;;;;2.80;1.30;;;;;;;15.98;87.34;98902.00;102565;277;95937;-55
2023/08/07 06:09:57;;;;;;;1.80;1.40;;;;;;;15.96;87.57;98901.98;102574;266;120815;-55
2023/08/07 06:12:41;;;;;;;3.20;1.50;;;;;;;15.96;87.55;98900.89;102557;277;105324;-55
2023/08/07 06:15:22;;;;;;;1.80;1.20;;;;;;;16.06;87.54;98897.91;102526;278;114598;-56
2023/08/07 06:18:04;;;;;;;2.00;1.40;;;;;;;16.03;87.41;98902.20;102585;278;97233;-55
2023/08/07 06:20:48;;;;;;;3.40;1.60;;;;;;;16.06;87.36;98905.38;102578;278;97531;-55
2023/08/07 06:23:33;;;;;;;1.90;1.40;;;;;;;16.10;87.10;98905.08;102538;278;120567;-56
2023/08/07 06:26:17;;;;;;;3.60;1.10;;;;;;;16.25;86.92;98906.71;102590;278;105885;-57
2023/08/07 06:29:01;;;;;;;2.40;1.30;;;;;;;16.34;86.73;98903.13;102565;277;113502;-55
2023/08/07 06:31:53;;;;;;;1.80;1.00;;;;;;;16.38;86.85;98901.84;102612;277;97076;-55
2023/08/07 06:34:34;;;;;;;2.20;1.30;;;;;;;16.47;86.46;98911.40;102560;278;97213;-54
2023/08/07 06:37:20;;;;;;;1.40;1.00;;;;;;;16.46;86.34;98917.87;102551;278;120707;-54
2023/08/07 06:39:55;;;;;;;2.60;1.60;;;;;;;16.48;86.51;98916.13;102578;278;105310;-54
2023/08/07 06:42:32;;;;;;;5.00;2.20;;;;;;;16.59;86.47;98918.73;102542;278;114653;-55
2023/08/07 06:45:12;;;;;;;2.40;1.50;;;;;;;16.63;86.17;98919.90;102482;278;96286;-55
2023/08/07 06:47:49;;;;;;;2.70;1.40;;;;;;;16.75;86.17;98918.73;102594;278;97621;-53
2023/08/07 06:50:27;;;;;;;3.00;1.50;;;;;;;16.77;85.90;98922.94;102524;278;120737;-53
2023/08/07 06:53:05;;;;;;;1.80;1.30;;;;;;;16.81;85.85;98928.78;102545;278;105624;-55
2023/08/07 06:55:48;;;;;;;2.80;1.30;;;;;;;16.91;85.97;98928.39;102517;277;114036;-54
2023/08/07 06:58:26;;;;;;;2.00;1.30;;;;;;;17.07;85.83;98932.72;102555;278;97503;-54
2023/08/07 07:01:07;;;;;;;4.10;1.50;;;;;;;17.18;85.61;98939.19;102597;278;98327;-61
2023/08/07 07:03:52;;;;;;;2.60;1.80;;;;;;;17.28;85.34;98945.23;102562;278;120892;-56
2023/08/07 07:06:32;;;;;;;3.00;1.40;;;;;;;17.41;85.39;98943.36;102611;278;105782;-54
2023/08/07 07:09:11;;;;;;;4.20;2.00;;;;;;;17.67;85.07;98945.09;102621;278;113570;-53
2023/08/07 07:11:48;;;;;;;3.50;1.40;;;;;;;17.80;84.57;98948.00;102605;278;95859;-55
2023/08/07 07:14:26;;;;;;;2.50;1.40;;;;;;;17.85;84.37;98945.16;102633;278;97406;-55
2023/08/07 07:17:04;;;;;;;2.10;1.30;;;;;;;18.03;84.28;98938.07;102628;278;120691;-57
2023/08/07 07:19:42;;;;;;;1.60;1.10;;;;;;;18.44;83.99;98938.01;102598;278;104893;-57
2023/08/07 07:22:19;;;;;;;3.30;1.30;;;;;;;18.67;83.67;98933.77;102645;278;113170;-57
2023/08/07 07:24:58;;;;;;;2.80;1.40;;;;;;;18.95;83.23;98933.25;102634;278;94018;-57
2023/08/07 07:27:34;;;;;;;2.50;1.20;;;;;;;18.98;82.92;98935.53;102651;278;98118;-62
2023/08/07 07:30:11;;;;;;;1.60;1.20;;;;;;;18.91;82.04;98940.54;102628;278;120219;-61
2023/08/07 07:32:53;;;;;;;1.70;1.10;;;;;;;18.56;81.59;98950.80;102453;278;108522;-54
2023/08/07 07:35:38;;;;;;;2.60;1.30;;;;;;;18.28;81.31;98956.05;102590;278;113914;-54
2023/08/07 07:38:16;;;;;;;4.40;1.30;;;;;;;18.08;81.11;98962.08;102547;278;95651;-54
2023/08/07 07:40:58;;;;;;;3.10;1.30;;;;;;;17.90;80.99;98967.69;102430;278;96843;-54
2023/08/07 07:43:41;;;;;;;2.50;1.30;;;;;;;17.64;80.87;98972.29;102575;278;120784;-53
2023/08/07 07:46:23;;;;;;;2.60;1.40;;;;;;;17.36;80.80;98974.42;102672;278;105378;-55
2023/08/07 07:49:03;;;;;;;1.50;1.10;;;;;;;17.45;81.35;98973.79;102632;278;114340;-54
2023/08/07 07:51:44;;;;;;;3.90;1.50;;;;;;;17.69;81.22;98967.60;102613;278;96827;-57
2023/08/07 07:54:20;;;;;;;1.50;1.20;;;;;;;17.84;81.60;98967.84;102609;278;98095;-57
2023/08/07 07:57:00;;;;;;;1.50;1.20;;;;;;;18.03;81.08;98967.88;102643;278;120596;-53
2023/08/07 07:59:40;;;;;;;2.10;1.30;;;;;;;17.88;80.67;98968.02;102616;278;105545;-54
2023/08/07 08:02:17;;;;;;;2.60;1.70;;;;;;;17.64;80.41;98969.94;102492;278;114296;-55
2023/08/07 08:04:57;;;;;;;3.10;1.70;;;;;;;17.52;80.47;98976.92;102625;278;95711;-55
2023/08/07 08:07:35;;;;;;;3.10;2.30;;;;;;;17.67;80.83;98973.38;102595;278;97299;-56
2023/08/07 08:10:15;;;;;;;2.30;1.30;;;;;;;18.67;81.87;98965.80;102540;278;120031;-56
2023/08/07 08:12:56;;;;;;;4.10;2.00;;;;;;;19.60;80.43;98969.32;102604;278;103671;-58
2023/08/07 08:15:36;;;;;;;2.20;1.20;;;;;;;20.37;79.59;98962.92;102591;266;114599;-58
2023/08/07 08:18:13;;;;;;;3.20;1.80;;;;;;;20.49;77.48;98968.87;102594;278;94665;-57
2023/08/07 08:20:51;;;;;;;2.10;1.30;;;;;;;20.02;76.26;98972.34;102631;278;97859;-56
2023/08/07 08:23:30;;;;;;;2.60;1.20;;;;;;;19.48;75.41;98985.33;102590;278;120424;-56
2023/08/07 08:26:05;;;;;;;1.40;1.00;;;;;;;19.01;75.54;98984.79;102650;278;103742;-55
2023/08/07 08:28:42;;;;;;;2.50;1.30;;;;;;;18.72;75.52;98988.63;102621;278;113379;-55
2023/08/07 08:31:23;;;;;;;2.50;1.50;;;;;;;18.50;75.82;98990.79;102585;278;94614;-54
2023/08/07 08:34:11;;;;;;;1.20;1.10;;;;;;;18.36;75.82;98991.54;102584;278;98017;-55
2023/08/07 08:36:49;;;;;;;4.60;2.80;;;;;;;18.19;75.76;98999.08;102632;278;120774;-54
2023/08/07 08:39:24;;;;;;;3.90;2.50;;;;;;;18.04;75.67;99001.04;102656;278;106037;-54
2023/08/07 08:42:02;;;;;;;3.20;2.30;;;;;;;18.12;76.18;99011.17;102605;278;113515;-55
2023/08/07 08:44:41;;;;;;;2.90;1.30;;;;;;;18.64;76.77;99006.36;102593;278;96034;-55
2023/08/07 08:47:20;;;;;;;1.60;1.10;;;;;;;18.99;76.20;99002.43;102625;278;97560;-57
2023/08/07 08:50:02;;;;;;;1.50;1.10;;;;;;;19.33;76.15;98997.00;102606;278;119813;-57
2023/08/07 08:52:44;;;;;;;2.00;1.10;;;;;;;19.60;75.33;98993.99;102671;278;104449;-54
2023/08/07 08:55:21;;;;;;;1.40;1.10;;;;;;;19.58;74.63;98988.89;102619;278;112840;-54
2023/08/07 08:58:01;;;;;;;2.40;1.30;;;;;;;19.54;74.46;98986.63;102614;278;93411;-57
2023/08/07 09:00:37;;;;;;;1.80;1.10;;;;;;;19.43;73.96;98986.55;102637;277;96609;-56
2023/08/07 09:03:13;;;;;;;2.40;1.20;;;;;;;19.33;74.03;98985.98;102669;278;121839;-54
2023/08/07 09:05:57;;;;;;;3.30;1.10;;;;;;;19.29;74.04;98991.35;102632;278;105223;-55
2023/08/07 09:08:41;;;;;;;2.20;1.30;;;;;;;19.65;74.54;99001.96;102580;278;115019;-55
2023/08/07 09:11:21;;;;;;;1.50;1.10;;;;;;;21.00;75.18;98996.08;102667;278;94915;-54
2023/08/07 09:14:03;;;;;;;2.50;1.20;;;;;;;21.25;72.97;99003.40;102597;278;98891;-54
2023/08/07 09:16:41;;;;;;;1.50;1.00;;;;;;;21.36;72.03;99007.27;102630;278;119195;-55
2023/08/07 09:19:21;;;;;;;1.70;1.20;;;;;;;21.26;71.24;99012.66;102605;278;105311;-55
2023/08/07 09:22:08;;;;;;;1.50;1.10;;;;;;;21.79;71.40;99016.55;102581;278;114907;-56
2023/08/07 09:24:47;;;;;;;2.80;1.00;;;;;;;22.43;70.12;99020.17;102608;277;95014;-54
2023/08/07 09:27:23;;;;;;;3.40;1.00;;;;;;;22.79;69.31;99020.68;102656;278;96388;-54
2023/08/07 09:30:04;;;;;;;1.20;0.90;;;;;;;22.73;67.77;99032.09;102569;278;119946;-54
2023/08/07 09:32:44;;;;;;;2.50;1.00;;;;;;;22.65;66.76;99043.61;102560;278;104709;-54
2023/08/07 09:35:27;;;;;;;0.90;0.80;;;;;;;22.54;65.97;99050.33;102570;278;112730;-56
2023/08/07 09:38:03;;;;;;;1.60;0.90;;;;;;;22.00;64.37;99057.58;102594;278;95347;-54
2023/08/07 09:40:38;;;;;;;2.50;1.00;;;;;;;21.66;64.43;99068.84;102607;278;96856;-54
2023/08/07 09:43:23;;;;;;;2.40;1.10;;;;;;;21.26;64.27;99080.35;102601;278;119625;-57
2023/08/07 09:46:05;;;;;;;2.60;1.20;;;;;;;20.94;64.66;99089.59;102678;278;105862;-55
2023/08/07 09:48:46;;;;;;;2.20;0.90;;;;;;;20.94;64.95;99090.69;102563;278;113994;-55
2023/08/07 09:51:22;;;;;;;1.10;0.80;;;;;;;20.87;64.82;99090.15;102583;278;94822;-57
2023/08/07 09:54:07;;;;;;;1.50;0.90;;;;;;;20.83;64.54;99092.82;102555;278;96723;-57
2023/08/07 09:56:46;;;;;;;2.30;1.40;;;;;;;20.88;64.33;99089.20;102575;278;120833;-56
2023/08/07 09:59:21;;;;;;;1.80;0.70;;;;;;;20.91;64.22;99092.76;102606;278;103466;-56
2023/08/07 10:02:04;;;;;;;1.80;0.90;;;;;;;21.19;64.47;99090.77;102451;278;113997;-56
2023/08/07 10:04:45;;;;;;;2.60;1.00;;;;;;;21.37;64.14;99094.52;102571;278;94637;-56
2023/08/07 10:07:26;;;;;;;1.90;1.00;;;;;;;21.40;63.75;99091.52;102644;278;98004;-58
2023/08/07 10:10:06;;;;;;;1.90;1.00;;;;;;;21.27;63.05;99090.07;102532;278;120579;-58
2023/08/07 10:12:45;;;;;;;1.30;0.90;;;;;;;21.36;63.35;99085.02;102583;278;104595;-57
2023/08/07 10:15:22;;;;;;;1.50;0.80;;;;;;;21.79;63.66;99084.45;102558;278;115139;-57
2023/08/07 10:18:00;;;;;;;1.40;0.80;;;;;;;21.99;63.28;99086.48;102575;278;92884;-55
2023/08/07 10:20:49;;;;;;;1.20;0.80;;;;;;;21.93;62.31;99087.71;102576;277;97935;-55
2023/08/07 10:23:30;;;;;;;2.60;0.70;;;;;;;21.94;62.46;99086.73;102561;277;120393;-56
2023/08/07 10:26:16;;;;;;;2.60;0.80;;;;;;;21.80;62.17;99086.42;102578;278;106434;-55
2023/08/07 10:28:57;;;;;;;1.40;1.10;;;;;;;21.59;62.05;99088.38;102536;278;114087;-53
2023/08/07 10:31:37;;;;;;;1.80;1.00;;;;;;;21.45;62.04;99089.20;102602;278;94905;-55
2023/08/07 10:34:14;;;;;;;2.30;1.40;;;;;;;21.33;61.95;99090.50;102567;278;98061;-53
2023/08/07 10:36:53;;;;;;;2.30;0.90;;;;;;;21.30;62.26;99094.11;102585;278;121304;-53
2023/08/07 10:39:35;;;;;;;1.80;1.50;;;;;;;21.29;62.31;99096.25;102511;278;105909;-52
2023/08/07 10:42:19;;;;;;;2.60;1.70;;;;;;;21.35;62.09;99088.16;102536;278;112779;-55
2023/08/07 10:45:07;;;;;;;4.40;2.80;;;;;;;21.61;62.54;99089.40;102522;278;94609;-56
2023/08/07 10:48:05;;;;;;;2.00;1.30;;;;;;;22.06;62.47;99097.27;102574;278;97235;-56
2023/08/07 10:50:58;;;;;;;3.20;1.20;;;;;;;22.08;61.44;99098.30;102563;277;121419;-56
2023/08/07 10:53:40;;;;;;;3.30;1.20;;;;;;;22.10;61.29;99095.30;102564;278;105595;-55
2023/08/07 10:56:19;;;;;;;3.00;1.10;;;;;;;22.08;61.24;99089.00;102606;277;112741;-57
2023/08/07 10:59:10;;;;;;;2.10;0.90;;;;;;;22.18;61.16;99089.58;102552;278;93769;-57
2023/08/07 11:01:57;;;;;;;3.50;1.20;;;;;;;22.19;60.67;99085.64;102652;278;98285;-55
2023/08/07 11:04:36;;;;;;;1.90;1.00;;;;;;;22.06;60.49;99090.39;102586;277;120369;-56
2023/08/07 11:07:26;;;;;;;1.90;1.00;;;;;;;22.34;60.03;99084.23;102553;278;106201;-56
2023/08/07 11:10:02;;;;;;;2.80;1.00;;;;;;;22.67;59.40;99089.61;102600;278;114435;-55
2023/08/07 11:12:41;;;;;;;1.70;0.80;;;;;;;22.69;58.82;99090.74;102328;278;479505;-54
2023/08/07 11:15:22;;;;;;;2.60;0.90;;;;;;;22.53;58.32;99105.49;102422;278;97871;-55
2023/08/07 11:18:01;;;;;;;1.50;0.90;;;;;;;22.39;57.07;99107.36;102618;278;121046;-53
2023/08/07 11:20:38;;;;;;;1.80;1.00;;;;;;;22.04;57.06;99111.17;102623;278;104838;-54
2023/08/07 11:23:14;;;;;;;1.70;1.00;;;;;;;21.94;57.03;99116.09;102617;278;114795;-56
2023/08/07 11:25:55;;;;;;;1.80;1.10;;;;;;;22.01;57.48;99116.31;102597;278;93520;-54
2023/08/07 11:28:39;;;;;;;2.10;0.90;;;;;;;22.28;57.57;99110.94;102575;278;98483;-54
2023/08/07 11:31:19;;;;;;;2.80;1.10;;;;;;;22.56;57.24;99111.63;102566;278;121114;-54
2023/08/07 11:33:59;;;;;;;2.20;0.90;;;;;;;22.65;57.01;99111.44;102618;278;105592;-55
2023/08/07 11:36:44;;;;;;;1.40;0.80;;;;;;;22.59;56.84;99106.67;102599;278;114233;-56
2023/08/07 11:39:28;;;;;;;1.30;0.90;;;;;;;22.54;56.92;99104.28;102617;278;95032;-55
2023/08/07 11:42:09;;;;;;;1.10;0.80;;;;;;;22.33;56.63;99098.21;102626;278;97458;-55
2023/08/07 11:44:52;;;;;;;1.70;1.00;;;;;;;22.12;56.01;99098.95;102611;278;119813;-55
2023/08/07 11:47:30;;;;;;;2.30;0.90;;;;;;;21.83;55.84;99098.98;102599;278;105284;-53
2023/08/07 11:50:05;;;;;;;;;;;;;;;21.69;55.93;99094.37;102625;278;114976;-54
2023/08/07 11:52:43;;;;;;;1.40;1.00;;;;;;;21.68;56.21;99097.96;102618;278;93607;-58
2023/08/07 11:55:20;;;;;;;1.90;0.80;;;;;;;21.78;56.28;99100.90;102608;278;97944;-57
2023/08/07 11:57:56;;;;;;;1.90;1.00;;;;;;;21.85;55.92;99102.04;102593;278;119712;-59
2023/08/07 12:00:34;;;;;;;2.10;1.10;;;;;;;21.88;55.88;99104.44;102576;278;104718;-59
2023/08/07 12:03:26;;;;;;;2.40;1.00;;;;;;;21.82;55.71;99107.73;102600;278;114223;-53
2023/08/07 12:06:09;;;;;;;1.50;1.20;;;;;;;21.78;55.78;99109.64;102614;278;94809;-54
2023/08/07 12:08:50;;;;;;;1.40;1.00;;;;;;;21.78;55.90;99117.33;102612;278;98277;-54
2023/08/07 12:11:30;;;;;;;3.20;1.10;;;;;;;21.54;55.71;99118.84;102594;278;120701;-53
2023/08/07 12:14:15;;;;;;;1.20;1.00;;;;;;;21.32;56.02;99121.10;102601;278;105231;-54
2023/08/07 12:16:53;;;;;;;1.80;1.00;;;;;;;21.04;56.18;99127.17;102605;278;114227;-57
2023/08/07 12:19:43;;;;;;;4.10;1.20;;;;;;;20.76;56.36;99135.38;102610;278;93403;-57
2023/08/07 12:22:23;;;;;;;1.60;1.10;;;;;;;20.43;56.87;99148.29;102621;278;97353;-54
2023/08/07 12:25:04;;;;;;;2.40;1.50;;;;;;;20.15;57.15;99148.35;102585;278;120835;-53
2023/08/07 12:27:47;;;;;;;2.10;1.60;;;;;;;20.04;57.64;99146.98;102597;278;105898;-56